createdAt,value
2019-04-06T00:02:11.184Z,21.10
2019-04-06T00:04:38.544Z,20.97
2019-04-06T00:07:05.911Z,21.10
2019-04-06T00:09:33.211Z,24.67
2019-04-06T00:12:00.267Z,23.80
2019-04-06T00:14:29.203Z,23.52
2019-04-06T00:16:56.529Z,23.62
2019-04-06T00:19:23.564Z,23.02
2019-04-06T00:21:50.862Z,22.62
2019-04-06T00:24:17.902Z,23.52
2019-04-06T00:26:45.198Z,22.60
2019-04-06T00:29:12.228Z,21.57
2019-04-06T00:31:39.277Z,20.88
2019-04-06T00:34:07.725Z,20.97
2019-04-06T00:36:35.026Z,22.45
2019-04-06T00:39:02.417Z,22.35
2019-04-06T00:41:30.542Z,22.48
2019-04-06T00:43:57.845Z,22.07
2019-04-06T00:46:24.883Z,22.73
2019-04-06T00:48:51.939Z,22.10
2019-04-06T00:51:19.363Z,23.22
2019-04-06T00:53:47.679Z,22.75
2019-04-06T00:56:14.722Z,22.25
2019-04-06T00:58:41.768Z,21.23
2019-04-06T01:01:08.800Z,24.77
2019-04-06T01:03:35.970Z,22.07
2019-04-06T01:06:03.238Z,22.82
2019-04-06T01:08:30.963Z,22.17
2019-04-06T01:10:58.010Z,20.70
2019-04-06T01:13:25.064Z,20.97
2019-04-06T01:15:52.378Z,21.33
2019-04-06T01:18:19.423Z,21.77
2019-04-06T01:20:47.678Z,20.88
2019-04-06T01:23:14.989Z,21.42
2019-04-06T01:25:42.276Z,23.42
2019-04-06T01:28:09.572Z,22.85
2019-04-06T01:30:36.869Z,20.35
2019-04-06T01:33:04.238Z,20.95
2019-04-06T01:35:31.280Z,21.10
2019-04-06T01:37:58.590Z,20.92
2019-04-06T01:40:25.699Z,21.65
2019-04-06T01:42:53.074Z,20.92
2019-04-06T01:45:20.129Z,24.63
2019-04-06T01:47:47.462Z,26.95
2019-04-06T01:50:14.815Z,24.20
2019-04-06T01:52:42.201Z,24.63
2019-04-06T01:55:09.176Z,23.98
2019-04-06T01:57:36.230Z,22.87
2019-04-06T02:00:03.514Z,21.15
2019-04-06T02:02:31.886Z,21.37
2019-04-06T02:05:00.331Z,20.23
2019-04-06T02:07:27.621Z,22.58
2019-04-06T02:09:54.922Z,21.60
2019-04-06T02:12:22.331Z,17.98
2019-04-06T02:14:49.603Z,18.42
2019-04-06T02:17:16.639Z,20.70
2019-04-06T02:19:43.775Z,21.30
2019-04-06T02:22:11.065Z,23.47
2019-04-06T02:24:38.122Z,21.68
2019-04-06T02:27:05.394Z,23.83
2019-04-06T02:29:32.711Z,23.25
2019-04-06T02:31:59.867Z,21.75
2019-04-06T02:34:27.273Z,25.08
2019-04-06T02:36:54.265Z,24.90
2019-04-06T02:39:21.612Z,24.57
2019-04-06T02:41:48.946Z,24.90
2019-04-06T02:44:16.279Z,25.20
2019-04-06T02:46:43.663Z,25.88
2019-04-06T02:49:10.961Z,27.30
2019-04-06T02:51:38.351Z,26.70
2019-04-06T02:54:05.554Z,24.40
2019-04-06T02:56:45.078Z,22.32
2019-04-06T02:59:01.639Z,22.30
2019-04-06T03:01:28.753Z,23.25
2019-04-06T03:03:55.840Z,20.35
2019-04-06T03:06:23.144Z,17.77
2019-04-06T03:08:50.563Z,19.40
2019-04-06T03:11:17.820Z,19.23
2019-04-06T03:13:45.201Z,18.65
2019-04-06T03:16:12.257Z,20.95
2019-04-06T03:18:39.586Z,23.30
2019-04-06T03:21:07.078Z,24.10
2019-04-06T03:23:49.172Z,26.93
2019-04-06T03:26:03.247Z,27.82
2019-04-06T03:28:30.271Z,27.07
2019-04-06T03:30:58.992Z,25.82
2019-04-06T03:33:26.068Z,24.67
2019-04-06T03:35:53.399Z,22.32
2019-04-06T03:38:20.596Z,22.13
2019-04-06T03:40:47.618Z,21.82
2019-04-06T03:43:14.671Z,22.77
2019-04-06T03:45:41.960Z,23.20
2019-04-06T03:48:09.279Z,23.73
2019-04-06T03:50:36.634Z,23.38
2019-04-06T03:53:03.806Z,25.48
2019-04-06T03:55:30.813Z,23.83
2019-04-06T03:57:57.859Z,24.40
2019-04-06T04:00:25.234Z,26.15
2019-04-06T04:02:53.721Z,26.02
2019-04-06T04:05:20.736Z,27.32
2019-04-06T04:07:48.150Z,26.57
2019-04-06T04:10:15.473Z,25.65
2019-04-06T04:12:42.527Z,26.60
2019-04-06T04:15:09.586Z,27.27
2019-04-06T04:17:36.633Z,27.20
2019-04-06T04:20:03.795Z,29.12
2019-04-06T04:22:34.477Z,51.75
2019-04-06T04:25:00.520Z,56.73
2019-04-06T04:27:30.183Z,37.58
2019-04-06T04:29:56.589Z,29.07
2019-04-06T04:32:23.940Z,26.55
2019-04-06T04:34:51.278Z,23.45
2019-04-06T04:37:18.736Z,20.37
2019-04-06T04:39:46.020Z,22.07
2019-04-06T04:42:13.079Z,24.80
2019-04-06T04:44:40.116Z,23.98
2019-04-06T04:47:07.231Z,25.72
2019-04-06T04:49:34.485Z,29.65
2019-04-06T04:52:01.538Z,28.75
2019-04-06T04:54:28.887Z,30.77
2019-04-06T04:56:56.317Z,29.82
2019-04-06T04:59:23.720Z,32.78
2019-04-06T05:01:51.042Z,30.15
2019-04-06T05:04:19.363Z,28.40
2019-04-06T05:06:46.911Z,28.38
2019-04-06T05:09:14.310Z,28.57
2019-04-06T05:11:41.625Z,28.73
2019-04-06T05:14:08.672Z,28.85
2019-04-06T05:16:35.809Z,29.67
2019-04-06T05:19:03.281Z,29.18
2019-04-06T05:21:30.615Z,27.13
2019-04-06T05:23:57.666Z,29.37
2019-04-06T05:26:24.725Z,29.32
2019-04-06T05:28:52.080Z,28.15
2019-04-06T05:31:19.128Z,27.13
2019-04-06T05:33:46.168Z,27.75
2019-04-06T05:36:14.376Z,26.68
2019-04-06T05:38:41.687Z,27.65
2019-04-06T05:41:09.044Z,28.23
2019-04-06T05:43:36.398Z,28.23
2019-04-06T05:46:03.776Z,28.07
2019-04-06T05:48:31.114Z,26.37
2019-04-06T05:50:58.469Z,26.95
2019-04-06T05:53:25.823Z,26.37
2019-04-06T05:55:52.875Z,26.17
2019-04-06T05:58:20.243Z,27.50
2019-04-06T06:00:47.285Z,26.82
2019-04-06T06:03:15.542Z,27.17
2019-04-06T06:05:42.666Z,28.50
2019-04-06T06:08:10.297Z,27.17
2019-04-06T06:10:38.609Z,26.33
2019-04-06T06:13:06.279Z,24.55
2019-04-06T06:15:33.310Z,26.55
2019-04-06T06:18:00.888Z,27.00
2019-04-06T06:20:28.267Z,25.10
2019-04-06T06:22:55.765Z,27.17
2019-04-06T06:25:23.202Z,25.85
2019-04-06T06:27:50.260Z,26.00
2019-04-06T06:30:17.804Z,27.10
2019-04-06T06:32:44.931Z,25.57
2019-04-06T06:35:11.984Z,26.10
2019-04-06T06:37:39.339Z,25.23
2019-04-06T06:40:06.383Z,25.90
2019-04-06T06:42:33.441Z,26.68
2019-04-06T06:45:00.484Z,27.32
2019-04-06T06:47:27.856Z,27.05
2019-04-06T06:49:54.905Z,27.07
2019-04-06T06:52:22.240Z,26.10
2019-04-06T06:54:49.279Z,27.55
2019-04-06T06:57:16.647Z,29.02
2019-04-06T06:59:44.015Z,29.55
2019-04-06T07:02:11.077Z,33.28
2019-04-06T07:04:38.127Z,36.15
2019-04-06T07:07:05.196Z,32.67
2019-04-06T07:09:32.236Z,31.75
2019-04-06T07:11:59.298Z,32.95
2019-04-06T07:14:26.596Z,33.23
2019-04-06T07:16:53.655Z,31.50
2019-04-06T07:19:21.018Z,30.70
2019-04-06T07:21:48.366Z,32.17
2019-04-06T07:24:15.708Z,36.48
2019-04-06T07:26:43.105Z,36.85
2019-04-06T07:29:10.143Z,34.00
2019-04-06T07:31:37.483Z,30.57
2019-04-06T07:34:04.837Z,30.17
2019-04-06T07:36:32.272Z,30.05
2019-04-06T07:38:59.632Z,32.50
2019-04-06T07:41:26.987Z,32.05
2019-04-06T07:43:54.559Z,33.18
2019-04-06T07:46:22.058Z,32.17
2019-04-06T07:48:49.372Z,34.00
2019-04-06T07:51:16.418Z,35.45
2019-04-06T07:53:43.531Z,34.58
2019-04-06T07:56:10.572Z,34.60
2019-04-06T07:58:47.842Z,34.60
2019-04-06T08:01:07.056Z,31.20
2019-04-06T08:03:34.367Z,32.78
2019-04-06T08:06:01.422Z,34.00
2019-04-06T08:08:29.070Z,33.15
2019-04-06T08:10:56.699Z,35.90
2019-04-06T08:13:23.753Z,33.30
2019-04-06T08:15:50.797Z,36.05
2019-04-06T08:18:18.240Z,35.43
2019-04-06T08:20:45.246Z,32.88
2019-04-06T08:23:12.304Z,35.13
2019-04-06T08:25:39.350Z,34.92
2019-04-06T08:28:06.401Z,33.70
2019-04-06T08:30:50.109Z,35.48
2019-04-06T08:33:17.522Z,34.18
2019-04-06T08:35:44.824Z,34.55
2019-04-06T08:38:12.147Z,34.78
2019-04-06T08:40:39.484Z,41.15
2019-04-06T08:43:06.840Z,34.55
2019-04-06T08:45:34.211Z,32.38
2019-04-06T08:48:01.675Z,32.45
2019-04-06T08:50:28.716Z,35.65
2019-04-06T08:52:56.076Z,33.45
2019-04-06T08:55:23.411Z,36.03
2019-04-06T08:57:51.220Z,33.38
2019-04-06T09:00:18.248Z,33.20
2019-04-06T09:02:45.291Z,34.08
2019-04-06T09:05:12.629Z,33.33
2019-04-06T09:07:40.941Z,36.70
2019-04-06T09:10:08.601Z,34.90
2019-04-06T09:12:35.920Z,34.58
2019-04-06T09:15:03.256Z,35.05
2019-04-06T09:17:30.288Z,33.28
2019-04-06T09:19:57.743Z,34.55
2019-04-06T09:22:25.346Z,35.30
2019-04-06T09:24:53.560Z,34.58
2019-04-06T09:27:20.613Z,36.20
2019-04-06T09:29:47.674Z,34.58
2019-04-06T09:32:15.090Z,33.25
2019-04-06T09:34:42.428Z,35.55
2019-04-06T09:37:09.799Z,34.03
2019-04-06T09:39:37.257Z,33.25
2019-04-06T09:42:04.838Z,33.08
2019-04-06T09:44:31.851Z,34.48
2019-04-06T09:47:00.345Z,33.28
2019-04-06T09:49:27.483Z,31.40
2019-04-06T09:51:54.528Z,32.78
2019-04-06T09:54:21.858Z,30.68
2019-04-06T09:56:49.109Z,32.00
2019-04-06T09:59:17.617Z,30.90
2019-04-06T10:01:44.818Z,30.70
2019-04-06T10:04:12.128Z,30.48
2019-04-06T10:06:39.684Z,30.43
2019-04-06T10:09:07.485Z,29.07
2019-04-06T10:11:34.815Z,28.92
2019-04-06T10:14:02.179Z,29.50
2019-04-06T10:16:29.508Z,27.77
2019-04-06T10:18:56.641Z,27.90
2019-04-06T10:21:23.694Z,28.73
2019-04-06T10:23:51.066Z,29.45
2019-04-06T10:26:19.195Z,27.22
2019-04-06T10:28:46.486Z,26.37
2019-04-06T10:31:13.862Z,27.35
2019-04-06T10:33:40.891Z,27.58
2019-04-06T10:36:08.247Z,26.07
2019-04-06T10:38:35.602Z,27.17
2019-04-06T10:41:02.958Z,26.35
2019-04-06T10:43:30.391Z,25.15
2019-04-06T10:45:57.688Z,25.30
2019-04-06T10:48:25.024Z,25.60
2019-04-06T10:50:52.844Z,24.72
2019-04-06T10:53:19.903Z,22.50
2019-04-06T10:55:47.304Z,24.25
2019-04-06T10:58:15.778Z,23.22
2019-04-06T11:00:44.564Z,21.93
2019-04-06T11:03:11.967Z,20.88
2019-04-06T11:05:39.278Z,21.62
2019-04-06T11:08:06.630Z,21.17
2019-04-06T11:10:33.959Z,21.02
2019-04-06T11:13:01.347Z,20.90
2019-04-06T11:15:28.480Z,21.37
2019-04-06T11:17:55.550Z,20.80
2019-04-06T11:20:22.584Z,19.52
2019-04-06T11:22:49.945Z,19.05
2019-04-06T11:25:17.389Z,17.52
2019-04-06T11:27:45.635Z,16.97
2019-04-06T11:30:14.842Z,18.20
2019-04-06T11:32:42.288Z,16.60
2019-04-06T11:35:09.353Z,17.60
2019-04-06T11:37:36.413Z,18.40
2019-04-06T11:40:04.429Z,17.40
2019-04-06T11:42:31.754Z,16.57
2019-04-06T11:44:58.802Z,16.60
2019-04-06T11:47:26.931Z,16.30
2019-04-06T11:49:54.553Z,16.57
2019-04-06T11:52:21.670Z,17.82
2019-04-06T11:54:49.041Z,18.57
2019-04-06T11:57:16.110Z,18.45
2019-04-06T11:59:43.611Z,17.35
2019-04-06T12:02:11.000Z,16.67
2019-04-06T12:04:38.039Z,16.82
2019-04-06T12:07:05.407Z,16.27
2019-04-06T12:09:32.729Z,17.67
2019-04-06T12:12:00.031Z,16.82
2019-04-06T12:14:27.383Z,16.93
2019-04-06T12:16:54.733Z,16.40
2019-04-06T12:19:22.101Z,16.27
2019-04-06T12:21:49.156Z,15.95
2019-04-06T12:24:16.776Z,15.88
2019-04-06T12:26:44.176Z,14.90
2019-04-06T12:29:11.338Z,15.15
2019-04-06T12:31:38.754Z,15.72
2019-04-06T12:34:06.107Z,16.57
2019-04-06T12:36:33.256Z,16.45
2019-04-06T12:39:00.639Z,15.70
2019-04-06T12:41:29.349Z,14.40
2019-04-06T12:43:56.757Z,14.28
2019-04-06T12:46:24.212Z,14.58
2019-04-06T12:48:52.740Z,13.30
2019-04-06T12:51:20.497Z,12.73
2019-04-06T12:53:48.835Z,12.10
2019-04-06T12:56:16.302Z,12.68
2019-04-06T12:58:43.422Z,12.88
2019-04-06T13:01:10.930Z,13.00
2019-04-06T13:03:38.191Z,12.65
2019-04-06T13:06:05.633Z,13.13
2019-04-06T13:08:32.969Z,13.50
2019-04-06T13:11:00.326Z,12.47
2019-04-06T13:13:27.696Z,13.70
2019-04-06T13:15:54.757Z,12.85
2019-04-06T13:18:21.804Z,12.75
2019-04-06T13:20:48.848Z,13.10
2019-04-06T13:23:16.182Z,12.60
2019-04-06T13:25:43.531Z,12.88
2019-04-06T13:28:10.802Z,12.65
2019-04-06T13:30:38.517Z,12.55
2019-04-06T13:33:05.876Z,12.23
2019-04-06T13:35:32.905Z,13.65
2019-04-06T13:38:00.515Z,13.20
2019-04-06T13:40:28.810Z,13.18
2019-04-06T13:42:56.145Z,12.47
2019-04-06T13:45:23.500Z,12.90
2019-04-06T13:47:51.586Z,12.78
2019-04-06T13:50:18.951Z,12.75
2019-04-06T13:52:46.010Z,12.68
2019-04-06T13:55:13.297Z,13.32
2019-04-06T13:57:40.683Z,14.30
2019-04-06T14:00:08.041Z,13.03
2019-04-06T14:02:35.275Z,12.07
2019-04-06T14:05:02.874Z,13.28
2019-04-06T14:07:29.877Z,14.43
2019-04-06T14:09:57.260Z,12.98
2019-04-06T14:12:24.388Z,15.85
2019-04-06T14:14:51.766Z,14.33
2019-04-06T14:17:19.117Z,15.10
2019-04-06T14:19:46.471Z,13.95
2019-04-06T14:22:13.832Z,13.28
2019-04-06T14:24:41.201Z,14.00
2019-04-06T14:27:08.662Z,13.05
2019-04-06T14:29:36.048Z,14.00
2019-04-06T14:32:03.900Z,13.15
2019-04-06T14:34:31.008Z,13.60
2019-04-06T14:36:58.306Z,13.53
2019-04-06T14:39:25.459Z,13.62
2019-04-06T14:41:53.307Z,13.22
2019-04-06T14:44:20.612Z,13.05
2019-04-06T14:46:48.131Z,12.50
2019-04-06T14:49:28.859Z,12.78
2019-04-06T14:51:43.928Z,12.68
2019-04-06T14:54:11.542Z,14.05
2019-04-06T14:56:38.951Z,14.18
2019-04-06T14:59:06.016Z,13.10
2019-04-06T15:01:41.189Z,13.62
2019-04-06T15:04:02.469Z,12.88
2019-04-06T15:06:29.511Z,12.28
2019-04-06T15:08:56.852Z,11.80
2019-04-06T15:11:24.182Z,13.32
2019-04-06T15:13:51.700Z,12.10
2019-04-06T15:16:19.125Z,11.57
2019-04-06T15:18:46.377Z,12.53
2019-04-06T15:21:13.487Z,13.38
2019-04-06T15:23:41.005Z,11.68
2019-04-06T15:26:08.456Z,13.83
2019-04-06T15:28:35.505Z,10.88
2019-04-06T15:31:02.638Z,11.97
2019-04-06T15:33:29.995Z,12.15
2019-04-06T15:35:57.349Z,12.43
2019-04-06T15:38:24.644Z,12.63
2019-04-06T15:40:51.862Z,12.35
2019-04-06T15:43:19.793Z,11.55
2019-04-06T15:45:47.177Z,11.95
2019-04-06T15:48:14.533Z,11.40
2019-04-06T15:50:41.886Z,12.07
2019-04-06T15:53:08.939Z,12.00
2019-04-06T15:55:36.084Z,11.88
2019-04-06T15:58:03.130Z,11.22
2019-04-06T16:00:30.594Z,11.10
2019-04-06T16:02:57.849Z,10.98
2019-04-06T16:05:24.866Z,9.78
2019-04-06T16:07:51.924Z,10.18
2019-04-06T16:10:18.988Z,10.90
2019-04-06T16:12:47.109Z,10.03
2019-04-06T16:15:14.182Z,11.05
2019-04-06T16:17:41.565Z,10.75
2019-04-06T16:20:09.729Z,11.18
2019-04-06T16:22:37.246Z,11.45
2019-04-06T16:25:04.627Z,10.58
2019-04-06T16:27:31.932Z,10.53
2019-04-06T16:29:59.280Z,10.72
2019-04-06T16:32:32.424Z,11.38
2019-04-06T16:34:55.409Z,10.05
2019-04-06T16:37:22.765Z,9.78
2019-04-06T16:39:50.115Z,9.85
2019-04-06T16:42:17.176Z,9.88
2019-04-06T16:44:44.228Z,9.60
2019-04-06T16:47:11.569Z,10.63
2019-04-06T16:49:38.925Z,10.45
2019-04-06T16:52:05.999Z,8.80
2019-04-06T16:54:33.325Z,9.68
2019-04-06T16:57:00.683Z,9.65
2019-04-06T16:59:27.808Z,9.25
2019-04-06T17:01:54.927Z,8.23
2019-04-06T17:04:22.356Z,9.10
2019-04-06T17:06:49.852Z,9.88
2019-04-06T17:09:17.054Z,8.43
2019-04-06T17:11:44.379Z,9.93
2019-04-06T17:14:11.681Z,9.78
2019-04-06T17:16:39.007Z,8.68
2019-04-06T17:19:20.633Z,8.35
2019-04-06T17:21:48.260Z,9.35
2019-04-06T17:24:16.761Z,8.75
2019-04-06T17:26:44.543Z,7.90
2019-04-06T17:29:13.835Z,9.00
2019-04-06T17:31:43.995Z,9.45
2019-04-06T17:34:10.895Z,9.15
2019-04-06T17:36:41.967Z,8.63
2019-04-06T17:39:16.819Z,9.38
2019-04-06T17:41:44.422Z,9.25
2019-04-06T17:44:18.551Z,9.03
2019-04-06T17:46:46.233Z,8.68
2019-04-06T17:49:29.615Z,8.90
2019-04-06T17:54:33.508Z,9.03
2019-04-06T17:57:00.838Z,9.05
2019-04-06T17:59:31.283Z,9.65
2019-04-06T18:07:25.421Z,9.18
2019-04-06T18:09:56.666Z,9.80
2019-04-06T18:12:24.649Z,9.68
2019-04-06T18:14:52.975Z,9.68
2019-04-06T18:17:20.230Z,8.98
2019-04-06T18:19:57.282Z,8.88
2019-04-06T18:22:26.776Z,8.45
2019-04-06T18:25:04.172Z,9.23
2019-04-06T18:27:34.440Z,9.35
2019-04-06T18:30:01.669Z,9.85
2019-04-06T18:32:34.812Z,9.58
2019-04-06T18:35:05.086Z,9.90
2019-04-06T18:37:33.639Z,9.63
2019-04-06T18:40:01.845Z,9.40
2019-04-06T18:42:29.682Z,8.93
2019-04-06T18:44:57.340Z,9.50
2019-04-06T18:47:24.527Z,9.63
2019-04-06T18:49:52.379Z,8.60
2019-04-06T18:52:20.229Z,9.40
2019-04-06T18:57:32.362Z,9.23
2019-04-06T19:00:00.828Z,9.23
2019-04-06T19:02:28.475Z,10.00
2019-04-06T19:04:55.843Z,10.25
2019-04-06T19:07:25.071Z,9.45
2019-04-06T19:09:52.339Z,9.85
2019-04-06T19:12:19.974Z,10.03
2019-04-06T19:19:53.838Z,9.70
2019-04-06T19:22:22.110Z,9.55
2019-04-06T19:24:51.320Z,9.95
2019-04-06T19:27:18.559Z,9.98
2019-04-06T19:29:49.365Z,10.88
2019-04-06T19:32:33.133Z,10.35
2019-04-06T19:42:57.341Z,9.68
2019-04-06T19:45:24.963Z,10.32
2019-04-06T19:47:54.131Z,10.80
2019-04-06T19:50:23.345Z,9.68
2019-04-06T19:52:57.921Z,9.65
2019-04-06T19:55:25.553Z,10.15
2019-04-06T19:57:57.216Z,9.73
2019-04-06T20:02:59.478Z,9.68
2019-04-06T20:05:29.672Z,9.33
2019-04-06T20:07:57.853Z,9.40
2019-04-06T20:10:25.139Z,9.73
2019-04-06T20:12:52.427Z,10.35
2019-04-06T20:15:24.407Z,10.28
2019-04-06T20:17:54.017Z,10.15
2019-04-06T20:25:38.135Z,10.35
2019-04-06T20:30:58.083Z,10.43
2019-04-06T20:33:30.502Z,11.12
2019-04-06T20:35:57.744Z,11.83
2019-04-06T20:38:26.157Z,11.33
2019-04-06T20:40:53.877Z,11.70
2019-04-06T20:43:22.064Z,10.98
2019-04-06T20:45:49.335Z,11.40
2019-04-06T20:48:25.748Z,11.33
2019-04-06T20:50:52.813Z,10.78
2019-04-06T20:53:22.643Z,11.70
2019-04-06T20:58:26.887Z,13.38
2019-04-06T21:00:54.519Z,13.53
2019-04-06T21:03:23.298Z,13.18
2019-04-06T21:05:52.822Z,13.00
2019-04-06T21:08:27.195Z,13.83
2019-04-06T21:10:58.013Z,12.98
2019-04-06T21:13:25.435Z,11.68
2019-04-06T21:15:53.636Z,12.10
2019-04-06T21:18:24.372Z,14.05
2019-04-06T21:28:58.339Z,12.98
2019-04-06T21:31:25.561Z,13.35
2019-04-06T21:36:38.005Z,13.18
2019-04-06T21:49:45.988Z,13.55
2019-04-06T21:52:13.026Z,12.40
2019-04-06T21:54:40.973Z,13.00
2019-04-06T21:57:20.030Z,12.07
2019-04-06T21:59:47.345Z,12.85
2019-04-06T22:02:14.811Z,11.90
2019-04-06T22:04:41.936Z,11.90
2019-04-06T22:07:09.831Z,12.07
2019-04-06T22:09:37.007Z,11.48
2019-04-06T22:12:04.051Z,11.85
2019-04-06T22:14:31.641Z,11.68
2019-04-06T22:16:59.312Z,11.53
2019-04-06T22:19:27.782Z,12.15
2019-04-06T22:21:55.409Z,12.73
2019-04-06T22:24:22.509Z,11.33
2019-04-06T22:26:49.683Z,11.43
2019-04-06T22:29:17.344Z,12.45
2019-04-06T22:31:44.922Z,11.40
2019-04-06T22:34:12.571Z,11.30
2019-04-06T22:36:40.182Z,11.70
2019-04-06T22:39:07.478Z,12.18
2019-04-06T22:41:35.405Z,11.08
2019-04-06T22:44:03.022Z,11.48
2019-04-06T22:46:31.570Z,10.90
2019-04-06T22:48:58.967Z,10.75
2019-04-06T22:51:26.502Z,10.75
2019-04-06T22:53:53.537Z,9.95
2019-04-06T22:56:21.429Z,9.63
2019-04-06T22:58:49.343Z,10.08
2019-04-06T23:01:16.656Z,8.80
2019-04-06T23:03:45.013Z,8.35
2019-04-06T23:06:12.306Z,8.33
2019-04-06T23:08:39.618Z,9.73
2019-04-06T23:11:06.937Z,12.05
2019-04-06T23:13:34.533Z,10.93
2019-04-06T23:16:02.091Z,10.70
2019-04-06T23:18:29.368Z,9.60
2019-04-06T23:20:56.567Z,9.15
2019-04-06T23:23:23.624Z,9.83
2019-04-06T23:25:50.922Z,8.15
2019-04-06T23:28:18.210Z,8.25
2019-04-06T23:30:45.351Z,7.25
2019-04-06T23:33:12.378Z,7.15
2019-04-06T23:35:39.705Z,7.65
2019-04-06T23:38:07.465Z,6.20
2019-04-06T23:40:34.836Z,6.17
2019-04-06T23:43:02.116Z,6.35
2019-04-06T23:45:30.001Z,6.25
2019-04-06T23:47:57.293Z,9.33
2019-04-06T23:50:24.591Z,12.75
2019-04-06T23:52:51.637Z,13.40
2019-04-06T23:55:18.979Z,11.88
2019-04-06T23:57:46.562Z,10.72
